Time;durP1;ratioP1;P1;durP2;ratioP2;P2;SDS_P1;SDS_P2;PMS_P1;PMS_P2;Temp;Humidity;BMP_temperature;BMP_pressure;BME280_temperature;BME280_humidity;BME280_pressure;Samples;Min_cycle;Max_cycle;Signal;HPM_P1;HPM_P2
2023/03/26 00:01:09;;;;;;;7.28;3.13;;;8.10;99.90;;;;;;5108732;28;20196;-62
2023/03/26 00:03:37;;;;;;;3.70;3.03;;;8.10;99.90;;;;;;5109822;28;20299;-61
2023/03/26 00:06:07;;;;;;;4.72;3.67;;;8.10;99.90;;;;;;5110395;28;20199;-61
2023/03/26 00:08:34;;;;;;;5.10;2.95;;;8.10;99.90;;;;;;5104332;28;20747;-62
2023/03/26 00:11:03;;;;;;;8.70;3.70;;;8.00;99.90;;;;;;5095756;28;20201;-61
2023/03/26 00:13:31;;;;;;;5.60;3.20;;;8.00;99.90;;;;;;5096018;28;20326;-61
2023/03/26 00:15:57;;;;;;;4.97;3.70;;;8.00;99.90;;;;;;5095081;28;20709;-61
2023/03/26 00:18:29;;;;;;;4.78;3.28;;;8.00;99.90;;;;;;5095779;28;20200;-61
2023/03/26 00:20:56;;;;;;;3.85;3.05;;;8.00;99.90;;;;;;5096092;28;20188;-63
2023/03/26 00:23:22;;;;;;;2.80;2.50;;;8.00;99.90;;;;;;5096295;28;20204;-61
2023/03/26 00:25:50;;;;;;;4.95;2.58;;;8.00;99.90;;;;;;5096970;28;20560;-61
2023/03/26 00:28:20;;;;;;;6.07;3.47;;;8.10;99.90;;;;;;5101413;28;20546;-61
2023/03/26 00:30:47;;;;;;;13.27;3.22;;;8.10;99.90;;;;;;5101638;28;20208;-60
2023/03/26 00:33:16;;;;;;;8.25;2.90;;;8.10;99.90;;;;;;5100163;28;20204;-61
2023/03/26 00:35:46;;;;;;;4.93;2.67;;;8.10;99.90;;;;;;5099723;28;20227;-61
2023/03/26 00:38:13;;;;;;;2.60;2.35;;;8.10;99.90;;;;;;5099970;28;20215;-61
2023/03/26 00:40:42;;;;;;;5.03;2.53;;;8.10;99.90;;;;;;5100213;28;20207;-61
2023/03/26 00:43:17;;;;;;;3.83;2.67;;;8.10;99.90;;;;;;5099556;28;20236;-60
2023/03/26 00:45:46;;;;;;;12.80;3.67;;;8.10;99.90;;;;;;5100529;28;20223;-61
2023/03/26 00:48:13;;;;;;;3.88;2.22;;;8.10;99.90;;;;;;5102098;28;20200;-59
2023/03/26 00:50:41;;;;;;;3.17;1.83;;;8.10;99.90;;;;;;5101972;28;20211;-61
2023/03/26 00:53:10;;;;;;;4.88;2.15;;;8.00;99.90;;;;;;5102881;28;20208;-67
2023/03/26 00:55:37;;;;;;;3.58;2.50;;;8.00;99.90;;;;;;5103278;28;20211;-61
2023/03/26 00:58:04;;;;;;;6.22;2.30;;;8.00;99.90;;;;;;5103727;28;20207;-61
2023/03/26 01:00:35;;;;;;;5.90;1.90;;;8.00;99.90;;;;;;5104059;28;20196;-61
2023/03/26 01:03:04;;;;;;;6.00;2.80;;;8.00;99.90;;;;;;5102980;28;20605;-62
2023/03/26 01:05:44;;;;;;;3.90;2.50;;;7.90;99.90;;;;;;5102595;28;20224;-60
2023/03/26 01:08:26;;;;;;;3.85;2.40;;;8.00;99.90;;;;;;5102679;28;20181;-61
2023/03/26 01:11:02;;;;;;;4.05;2.85;;;7.90;99.90;;;;;;5101783;28;20188;-57
2023/03/26 01:13:33;;;;;;;4.78;2.22;;;7.90;99.90;;;;;;5102325;28;20309;-61
2023/03/26 01:16:01;;;;;;;3.60;2.53;;;7.90;99.90;;;;;;5103564;28;20216;-61
2023/03/26 01:18:39;;;;;;;6.55;3.05;;;7.90;99.90;;;;;;5103013;28;20197;-61
2023/03/26 01:21:08;;;;;;;4.70;2.58;;;7.90;99.90;;;;;;5103059;28;20275;-61
2023/03/26 01:23:44;;;;;;;6.93;3.47;;;7.90;99.90;;;;;;5102611;28;20250;-62
2023/03/26 01:26:23;;;;;;;6.70;3.50;;;7.90;99.90;;;;;;5103414;28;20192;-61
2023/03/26 01:28:54;;;;;;;5.25;2.95;;;7.80;99.90;;;;;;5103028;28;20185;-60
2023/03/26 01:31:29;;;;;;;5.38;3.10;;;7.80;99.90;;;;;;5102804;28;20181;-61
2023/03/26 01:34:03;;;;;;;5.47;2.05;;;7.80;99.90;;;;;;5102149;28;20277;-60
2023/03/26 01:36:38;;;;;;;7.85;2.70;;;7.80;99.90;;;;;;5101589;28;20204;-60
2023/03/26 01:39:10;;;;;;;5.35;2.28;;;7.80;99.90;;;;;;5099909;28;20184;-62
2023/03/26 01:41:44;;;;;;;8.88;2.70;;;7.80;99.90;;;;;;5100383;28;20184;-59
2023/03/26 01:44:17;;;;;;;6.32;2.03;;;7.80;99.90;;;;;;5100741;28;20221;-62
2023/03/26 01:46:45;;;;;;;3.38;2.08;;;7.80;99.90;;;;;;5101166;28;20199;-63
2023/03/26 01:49:12;;;;;;;4.22;2.45;;;7.70;99.90;;;;;;5100358;28;20200;-62
2023/03/26 01:51:41;;;;;;;4.72;2.17;;;7.70;99.90;;;;;;5100983;28;20550;-61
2023/03/26 01:54:12;;;;;;;6.45;2.20;;;7.70;99.90;;;;;;5100520;28;20232;-62
2023/03/26 01:56:50;;;;;;;3.28;1.80;;;7.60;99.90;;;;;;5100986;28;20207;-61
2023/03/26 01:59:32;;;;;;;2.92;1.67;;;7.60;99.90;;;;;;5099812;28;20659;-60
2023/03/26 02:02:03;;;;;;;2.10;1.70;;;7.60;99.90;;;;;;5101171;28;20195;-60
2023/03/26 02:04:35;;;;;;;6.85;2.80;;;7.70;99.90;;;;;;5101200;28;20216;-62
2023/03/26 02:07:05;;;;;;;3.25;1.42;;;7.70;99.90;;;;;;5102464;28;20184;-60
2023/03/26 02:09:37;;;;;;;3.45;1.65;;;7.60;99.90;;;;;;5103805;28;20185;-61
2023/03/26 02:12:08;;;;;;;5.47;1.40;;;7.60;99.90;;;;;;5105184;28;20188;-60
2023/03/26 02:14:35;;;;;;;3.63;1.98;;;7.60;99.90;;;;;;5104333;28;20264;-60
2023/03/26 02:17:02;;;;;;;8.75;1.73;;;7.50;99.90;;;;;;5101036;28;20239;-61
2023/03/26 02:19:29;;;;;;;3.45;1.45;;;7.40;99.90;;;;;;5101237;28;20200;-60
2023/03/26 02:21:59;;;;;;;4.00;1.50;;;7.30;99.90;;;;;;5105087;28;20200;-61
2023/03/26 02:24:26;;;;;;;4.03;1.63;;;7.30;99.90;;;;;;5108879;28;20221;-62
2023/03/26 02:26:52;;;;;;;4.55;1.73;;;7.20;99.90;;;;;;5107260;28;20211;-61
2023/03/26 02:29:21;;;;;;;3.50;1.30;;;7.20;99.90;;;;;;5108382;28;20200;-62
2023/03/26 02:31:48;;;;;;;2.67;1.30;;;7.20;99.90;;;;;;5108258;28;20226;-60
2023/03/26 02:34:15;;;;;;;3.30;1.33;;;7.20;99.90;;;;;;5100626;28;20220;-61
2023/03/26 02:36:42;;;;;;;3.05;1.27;;;7.30;99.90;;;;;;5097923;28;20217;-61
2023/03/26 02:39:10;;;;;;;3.00;1.40;;;7.30;99.90;;;;;;5102250;28;20208;-62
2023/03/26 02:41:37;;;;;;;2.97;1.20;;;7.30;99.90;;;;;;5100229;28;20222;-62
2023/03/26 02:44:05;;;;;;;3.13;1.98;;;7.30;99.90;;;;;;5099626;28;20231;-60
2023/03/26 02:46:34;;;;;;;1.20;1.10;;;7.30;99.90;;;;;;5100717;28;20269;-61
2023/03/26 02:49:00;;;;;;;2.17;1.55;;;7.30;99.90;;;;;;5100542;28;20196;-60
2023/03/26 02:51:27;;;;;;;4.00;1.50;;;7.40;99.90;;;;;;5099498;28;20204;-60
2023/03/26 02:53:54;;;;;;;2.45;1.63;;;7.40;99.90;;;;;;5100227;28;20236;-61
2023/03/26 02:56:21;;;;;;;1.40;1.30;;;7.50;99.90;;;;;;5103464;28;20212;-61
2023/03/26 02:58:48;;;;;;;2.65;1.50;;;7.50;99.90;;;;;;5102424;28;20211;-61
2023/03/26 03:01:17;;;;;;;4.18;1.75;;;7.50;99.90;;;;;;5101883;28;20200;-60
2023/03/26 03:03:46;;;;;;;4.03;1.67;;;7.50;99.90;;;;;;5103251;28;20231;-61
2023/03/26 03:06:13;;;;;;;4.93;1.73;;;7.50;99.90;;;;;;5102416;28;20269;-61
2023/03/26 03:08:40;;;;;;;3.22;1.70;;;7.50;99.90;;;;;;5101882;28;20729;-61
2023/03/26 03:11:09;;;;;;;3.63;1.50;;;7.50;99.90;;;;;;5101027;28;20200;-59
2023/03/26 03:13:36;;;;;;;3.30;1.70;;;7.50;99.90;;;;;;5102215;28;20538;-60
2023/03/26 03:16:02;;;;;;;2.17;1.23;;;7.50;99.90;;;;;;5103500;28;20200;-61
2023/03/26 03:18:29;;;;;;;5.88;1.83;;;7.50;99.90;;;;;;5099939;28;20697;-61
2023/03/26 03:20:57;;;;;;;5.82;1.20;;;7.50;99.90;;;;;;5098618;28;20257;-59
2023/03/26 03:23:24;;;;;;;3.55;2.00;;;7.50;99.90;;;;;;5097472;28;20208;-59
2023/03/26 03:25:51;;;;;;;3.45;1.33;;;7.50;99.90;;;;;;5097151;28;20200;-60
2023/03/26 03:28:18;;;;;;;5.43;2.00;;;7.40;99.90;;;;;;5099572;28;20211;-60
2023/03/26 03:30:45;;;;;;;7.35;1.88;;;7.30;99.90;;;;;;5098709;28;20210;-61
2023/03/26 03:33:12;;;;;;;3.72;1.58;;;7.30;99.90;;;;;;5098201;28;20208;-62
2023/03/26 03:35:41;;;;;;;1.50;1.20;;;7.30;99.90;;;;;;5099469;28;20200;-60
2023/03/26 03:38:10;;;;;;;4.15;1.45;;;7.30;99.90;;;;;;5098297;28;20216;-60
2023/03/26 03:40:37;;;;;;;2.03;1.25;;;7.30;99.90;;;;;;5098396;28;20684;-59
2023/03/26 03:43:04;;;;;;;2.00;1.30;;;7.30;99.90;;;;;;5098772;28;20206;-61
2023/03/26 03:45:31;;;;;;;3.75;1.13;;;7.30;99.90;;;;;;5099245;28;20222;-61
2023/03/26 03:47:58;;;;;;;2.35;1.40;;;7.20;99.90;;;;;;5098463;28;20222;-59
2023/03/26 03:50:25;;;;;;;3.03;1.40;;;7.20;99.90;;;;;;5099914;28;20208;-60
2023/03/26 03:52:52;;;;;;;6.43;1.67;;;7.10;99.90;;;;;;5097706;28;20638;-60
2023/03/26 03:55:22;;;;;;;2.28;1.10;;;7.10;99.90;;;;;;5094676;28;20250;-61
2023/03/26 03:57:51;;;;;;;3.70;1.80;;;7.00;99.90;;;;;;5094376;28;20246;-60
2023/03/26 04:00:18;;;;;;;3.40;1.63;;;6.90;99.90;;;;;;5095214;28;20202;-60
2023/03/26 04:02:45;;;;;;;2.00;1.50;;;6.90;99.90;;;;;;5093550;28;20650;-60
2023/03/26 04:05:12;;;;;;;4.35;1.75;;;6.80;99.90;;;;;;5093808;28;20709;-59
2023/03/26 04:07:40;;;;;;;1.90;1.25;;;6.70;99.90;;;;;;5093804;28;20287;-60
2023/03/26 04:11:26;;;;;;;3.90;2.08;;;6.70;99.90;;;;;;5133527;27;20603;-61
2023/03/26 04:13:53;;;;;;;4.18;1.77;;;6.70;99.90;;;;;;5134387;27;20219;-59
2023/03/26 04:16:19;;;;;;;2.97;2.03;;;6.70;99.90;;;;;;5133456;28;20202;-60
2023/03/26 04:18:46;;;;;;;3.65;2.10;;;6.70;99.90;;;;;;5133910;28;20203;-61
2023/03/26 04:21:14;;;;;;;4.95;2.28;;;6.70;99.90;;;;;;5135001;28;20191;-61
2023/03/26 04:23:42;;;;;;;5.63;2.25;;;6.70;99.90;;;;;;5134196;27;20218;-59
2023/03/26 04:26:15;;;;;;;4.13;2.40;;;6.70;99.90;;;;;;5133190;28;20203;-60
2023/03/26 04:28:48;;;;;;;3.45;1.80;;;6.70;99.90;;;;;;5133286;28;20277;-60
2023/03/26 04:31:22;;;;;;;3.90;1.95;;;6.80;99.90;;;;;;5135977;28;20245;-61
2023/03/26 04:33:53;;;;;;;5.95;2.90;;;6.80;99.90;;;;;;5134969;27;20218;-60
2023/03/26 04:36:25;;;;;;;9.10;2.35;;;6.90;99.90;;;;;;5135019;28;20252;-60
2023/03/26 04:38:53;;;;;;;6.45;2.00;;;6.90;99.90;;;;;;5134820;28;20183;-60
2023/03/26 04:41:21;;;;;;;2.22;1.67;;;7.00;99.90;;;;;;5135805;28;20195;-60
2023/03/26 04:43:49;;;;;;;6.30;1.98;;;7.10;99.90;;;;;;5135636;27;20275;-61
2023/03/26 04:46:17;;;;;;;4.47;2.15;;;7.10;99.90;;;;;;5136045;28;20203;-60
2023/03/26 04:48:44;;;;;;;6.50;2.65;;;7.20;99.90;;;;;;5132868;27;20202;-60
2023/03/26 04:51:16;;;;;;;2.97;1.92;;;7.20;99.90;;;;;;5133173;28;20225;-60
2023/03/26 04:56:19;;;;;;;6.75;2.25;;;7.30;99.90;;;;;;5155256;22;20585;-60
2023/03/26 04:58:49;;;;;;;5.18;1.60;;;7.30;99.90;;;;;;5134324;28;20194;-60
2023/03/26 05:01:17;;;;;;;8.00;1.88;;;7.30;99.90;;;;;;5134070;28;20200;-60
2023/03/26 05:03:44;;;;;;;5.80;1.70;;;7.40;99.90;;;;;;5135969;28;20629;-60
2023/03/26 05:06:12;;;;;;;6.53;2.00;;;7.40;99.90;;;;;;5115804;28;20223;-60
2023/03/26 05:08:40;;;;;;;4.15;1.90;;;7.40;99.90;;;;;;5114712;28;20218;-60
2023/03/26 05:11:10;;;;;;;8.23;2.75;;;7.30;99.90;;;;;;5114120;28;20730;-60
2023/03/26 05:13:37;;;;;;;6.07;2.50;;;7.40;99.90;;;;;;5110613;28;20200;-60
2023/03/26 05:16:04;;;;;;;8.00;2.90;;;7.40;99.90;;;;;;5111820;28;20731;-60
2023/03/26 05:18:33;;;;;;;4.00;2.45;;;7.40;99.90;;;;;;5112081;28;20207;-62
2023/03/26 05:21:00;;;;;;;5.50;2.40;;;7.30;99.90;;;;;;5107011;28;20193;-60
2023/03/26 05:23:26;;;;;;;8.25;2.88;;;7.30;99.90;;;;;;5096796;28;20228;-63
2023/03/26 05:25:53;;;;;;;8.18;2.85;;;7.30;99.90;;;;;;5096534;28;20221;-62
2023/03/26 05:28:23;;;;;;;6.00;2.53;;;7.30;99.90;;;;;;5096341;28;20728;-62
2023/03/26 05:30:51;;;;;;;4.72;2.50;;;7.30;99.90;;;;;;5096367;28;20311;-62
2023/03/26 05:33:18;;;;;;;11.38;3.42;;;7.40;99.90;;;;;;5096634;28;20196;-63
2023/03/26 05:35:48;;;;;;;7.85;3.38;;;7.40;99.90;;;;;;5096260;28;20246;-63
2023/03/26 05:38:15;;;;;;;5.00;3.08;;;7.40;99.90;;;;;;5096546;28;20578;-62
2023/03/26 05:40:42;;;;;;;9.13;3.13;;;7.40;99.90;;;;;;5096269;28;20204;-63
2023/03/26 05:43:09;;;;;;;3.85;2.78;;;7.40;99.90;;;;;;5096370;28;20218;-63
2023/03/26 05:45:36;;;;;;;7.18;3.30;;;7.40;99.90;;;;;;5096555;28;20233;-62
2023/03/26 05:48:02;;;;;;;5.85;3.85;;;7.50;99.90;;;;;;5096876;28;20287;-62
2023/03/26 05:50:29;;;;;;;6.32;3.50;;;7.50;99.90;;;;;;5096215;28;20326;-62
2023/03/26 05:52:57;;;;;;;4.75;3.10;;;7.50;99.90;;;;;;5095948;28;20196;-62
2023/03/26 05:55:24;;;;;;;5.72;3.55;;;7.60;99.90;;;;;;5095129;28;20729;-63
2023/03/26 05:57:51;;;;;;;11.00;3.85;;;7.60;99.90;;;;;;5095633;28;20250;-64
2023/03/26 06:00:18;;;;;;;6.50;3.10;;;7.70;99.90;;;;;;5095334;28;20201;-62
2023/03/26 06:02:45;;;;;;;4.70;3.25;;;7.70;99.90;;;;;;5095260;28;20689;-63
2023/03/26 06:05:12;;;;;;;4.60;3.28;;;7.70;99.90;;;;;;5095323;28;20220;-63
2023/03/26 06:07:39;;;;;;;12.80;3.60;;;7.80;99.90;;;;;;5095808;28;20201;-62
2023/03/26 06:10:09;;;;;;;5.03;3.00;;;7.70;99.90;;;;;;5094903;28;20212;-62
2023/03/26 06:12:36;;;;;;;5.10;3.03;;;7.80;99.90;;;;;;5095352;28;20217;-63
2023/03/26 06:15:03;;;;;;;5.65;3.30;;;7.80;99.90;;;;;;5094702;28;20227;-64
2023/03/26 06:17:30;;;;;;;4.45;3.22;;;7.70;99.90;;;;;;5094816;28;20204;-63
2023/03/26 06:19:57;;;;;;;6.28;3.10;;;7.80;99.90;;;;;;5094880;28;20197;-62
2023/03/26 06:22:24;;;;;;;3.70;3.00;;;7.80;99.90;;;;;;5094862;28;20200;-63
2023/03/26 06:24:51;;;;;;;5.28;3.30;;;7.80;99.90;;;;;;5095170;28;20223;-65
2023/03/26 06:27:20;;;;;;;4.75;3.17;;;7.80;99.90;;;;;;5095151;28;20204;-64
2023/03/26 06:29:46;;;;;;;8.00;4.80;;;7.80;99.90;;;;;;5095595;28;20666;-63
2023/03/26 06:32:13;;;;;;;7.15;3.40;;;7.90;99.90;;;;;;5096467;28;20204;-63
2023/03/26 06:34:40;;;;;;;6.15;3.08;;;7.90;99.90;;;;;;5094371;28;20307;-63
2023/03/26 06:37:07;;;;;;;5.50;2.70;;;7.90;99.90;;;;;;5095575;28;20228;-62
2023/03/26 06:39:34;;;;;;;3.33;3.03;;;8.00;99.90;;;;;;5095076;28;20203;-61
2023/03/26 06:42:00;;;;;;;2.88;2.60;;;8.00;99.90;;;;;;5095321;28;20292;-63
2023/03/26 06:44:29;;;;;;;5.40;2.97;;;8.00;99.90;;;;;;5095570;28;20216;-62
2023/03/26 06:46:56;;;;;;;3.67;2.85;;;8.10;99.90;;;;;;5095618;28;20573;-62
2023/03/26 06:49:22;;;;;;;7.35;2.92;;;8.10;99.90;;;;;;5095654;28;20290;-62
2023/03/26 06:51:49;;;;;;;8.52;3.10;;;8.10;99.90;;;;;;5095537;28;20228;-63
2023/03/26 06:54:16;;;;;;;5.55;2.90;;;8.10;99.90;;;;;;5095718;28;20240;-63
2023/03/26 06:56:43;;;;;;;5.43;3.03;;;8.10;99.90;;;;;;5096882;28;20692;-63
2023/03/26 06:59:10;;;;;;;5.05;2.65;;;8.20;99.90;;;;;;5096971;28;20210;-61
2023/03/26 07:01:38;;;;;;;3.50;2.50;;;8.20;99.90;;;;;;5096119;28;20219;-61
2023/03/26 07:04:05;;;;;;;10.43;2.85;;;8.30;99.90;;;;;;5096819;28;20243;-62
2023/03/26 07:06:32;;;;;;;4.03;2.10;;;8.30;99.90;;;;;;5097875;28;20200;-62
2023/03/26 07:08:59;;;;;;;3.60;2.47;;;8.30;99.90;;;;;;5095782;28;20208;-62
2023/03/26 07:11:26;;;;;;;4.40;2.42;;;8.40;99.90;;;;;;5095271;28;20216;-62
2023/03/26 07:13:55;;;;;;;7.90;2.85;;;8.40;99.90;;;;;;5094911;28;20204;-64
2023/03/26 07:16:21;;;;;;;5.18;2.95;;;8.50;99.90;;;;;;5094552;28;20254;-63
2023/03/26 07:18:50;;;;;;;6.75;2.85;;;8.50;99.90;;;;;;5095225;28;20210;-63
2023/03/26 07:21:18;;;;;;;5.35;2.60;;;8.50;99.90;;;;;;5096141;28;20197;-63
2023/03/26 07:23:46;;;;;;;6.55;3.00;;;8.50;99.90;;;;;;5094969;28;20204;-63
2023/03/26 07:26:23;;;;;;;6.32;2.22;;;8.60;99.90;;;;;;5094972;28;20206;-62
2023/03/26 07:28:59;;;;;;;7.28;2.80;;;8.70;99.90;;;;;;5094905;28;20196;-63
2023/03/26 07:31:33;;;;;;;6.30;2.97;;;8.80;99.90;;;;;;5094636;28;20287;-62
2023/03/26 07:34:10;;;;;;;6.03;2.17;;;8.90;99.90;;;;;;5094890;28;20629;-62
2023/03/26 07:36:44;;;;;;;4.72;2.42;;;9.00;99.90;;;;;;5096026;28;20184;-62
2023/03/26 07:39:21;;;;;;;4.78;2.80;;;9.20;99.90;;;;;;5096384;28;20677;-63
2023/03/26 07:41:53;;;;;;;7.85;2.83;;;9.20;99.90;;;;;;5097308;28;20183;-62
2023/03/26 07:44:35;;;;;;;8.20;2.50;;;9.20;99.90;;;;;;5096484;28;20225;-63
2023/03/26 07:47:15;;;;;;;6.22;3.10;;;9.20;99.90;;;;;;5096822;28;20642;-62
2023/03/26 07:49:43;;;;;;;7.18;2.60;;;9.20;99.90;;;;;;5096120;28;20654;-63
2023/03/26 07:52:11;;;;;;;3.28;2.10;;;9.30;99.90;;;;;;5096333;28;20220;-61
2023/03/26 07:54:38;;;;;;;4.95;2.50;;;9.40;99.90;;;;;;5095740;28;20365;-62
2023/03/26 07:57:08;;;;;;;4.25;2.05;;;9.50;99.90;;;;;;5096348;28;20208;-61
2023/03/26 07:59:43;;;;;;;6.10;3.90;;;9.60;99.90;;;;;;5095108;28;20575;-62
2023/03/26 08:02:31;;;;;;;3.73;2.30;;;9.70;99.90;;;;;;5095219;28;20454;-60
2023/03/26 08:05:09;;;;;;;10.40;2.00;;;9.80;99.90;;;;;;5095987;28;20527;-62
2023/03/26 08:07:46;;;;;;;10.23;2.70;;;9.80;99.90;;;;;;5093537;28;20492;-62
2023/03/26 08:10:19;;;;;;;3.73;2.07;;;9.80;99.90;;;;;;5093274;28;20194;-60
2023/03/26 08:12:57;;;;;;;6.70;1.80;;;9.80;99.90;;;;;;5095039;28;20434;-61
2023/03/26 08:15:29;;;;;;;3.67;1.87;;;9.90;99.90;;;;;;5093461;28;20462;-61
2023/03/26 08:18:05;;;;;;;5.32;2.50;;;10.00;99.90;;;;;;5093684;28;20913;-60
2023/03/26 08:20:40;;;;;;;3.40;2.03;;;10.00;99.90;;;;;;5093653;28;20283;-61
2023/03/26 08:23:13;;;;;;;8.03;2.00;;;10.20;99.90;;;;;;5093497;28;20438;-63
2023/03/26 08:25:51;;;;;;;5.33;2.00;;;10.20;99.90;;;;;;5093601;28;20549;-62
2023/03/26 08:28:36;;;;;;;5.13;2.17;;;10.20;99.90;;;;;;5093494;28;20436;-62
2023/03/26 08:31:04;;;;;;;4.73;2.43;;;10.10;99.90;;;;;;5093839;28;20826;-62
2023/03/26 08:33:33;;;;;;;3.20;2.20;;;10.00;99.90;;;;;;5094899;28;20492;-62
2023/03/26 08:36:01;;;;;;;3.27;1.70;;;10.00;99.90;;;;;;5092917;28;20501;-62
2023/03/26 08:38:28;;;;;;;3.67;1.40;;;10.00;99.90;;;;;;5093118;28;20529;-62
2023/03/26 08:41:28;;;;;;;2.20;1.40;;;10.00;99.90;;;;;;5093239;28;20438;-62
2023/03/26 08:44:27;;;;;;;2.40;1.50;;;10.00;99.60;;;;;;5092993;28;20441;-60
2023/03/26 08:47:36;;;;;;;2.50;1.87;;;9.90;99.40;;;;;;5028358;28;20822;-62
2023/03/26 08:50:35;;;;;;;6.07;1.83;;;10.00;98.40;;;;;;5093146;28;20475;-63
2023/03/26 08:53:26;;;;;;;6.13;1.85;;;10.10;98.10;;;;;;5089908;28;20450;-62
2023/03/26 08:55:56;;;;;;;4.40;1.80;;;10.20;97.40;;;;;;5090021;28;20804;-62
2023/03/26 08:58:51;;;;;;;2.07;1.40;;;10.30;97.10;;;;;;5097165;28;20423;-62
2023/03/26 09:01:52;;;;;;;4.03;1.20;;;10.50;96.20;;;;;;5096732;28;20476;-62
2023/03/26 09:04:41;;;;;;;3.97;1.70;;;10.50;95.60;;;;;;5097042;28;20462;-62
2023/03/26 09:07:47;;;;;;;2.63;1.40;;;10.70;95.20;;;;;;5099035;28;20426;-62
2023/03/26 09:10:50;;;;;;;3.23;1.40;;;10.80;93.60;;;;;;5097073;28;20991;-62
2023/03/26 09:13:57;;;;;;;5.13;2.70;;;10.80;92.20;;;;;;5096810;28;20942;-61
2023/03/26 09:16:56;;;;;;;4.57;1.40;;;10.70;92.20;;;;;;5097555;28;20432;-61
2023/03/26 09:19:56;;;;;;;4.47;1.70;;;10.80;92.50;;;;;;5097517;28;20446;-62
2023/03/26 09:23:04;;;;;;;3.43;2.07;;;11.00;92.50;;;;;;5096752;28;20543;-62
2023/03/26 09:26:06;;;;;;;3.40;1.40;;;11.30;91.80;;;;;;5099127;28;20465;-62
2023/03/26 09:29:06;;;;;;;6.53;1.87;;;11.60;90.80;;;;;;5080134;28;20525;-62
2023/03/26 09:31:55;;;;;;;5.70;2.10;;;11.90;89.90;;;;;;5078989;28;20485;-62
2023/03/26 09:34:33;;;;;;;6.87;1.73;;;12.00;88.10;;;;;;5095821;28;21032;-62
2023/03/26 09:37:13;;;;;;;5.07;1.97;;;12.00;87.80;;;;;;5095519;28;20799;-62
2023/03/26 09:39:53;;;;;;;2.60;2.00;;;11.80;88.70;;;;;;5095783;28;20438;-63
2023/03/26 09:42:32;;;;;;;3.10;1.97;;;11.60;89.90;;;;;;5095775;28;20439;-62
2023/03/26 09:45:32;;;;;;;5.90;1.93;;;11.40;90.50;;;;;;5096436;28;20469;-62
2023/03/26 09:48:35;;;;;;;3.03;1.90;;;11.30;90.60;;;;;;5096310;28;20426;-63
2023/03/26 09:51:50;;;;;;;3.53;1.70;;;11.20;90.90;;;;;;5095614;28;20813;-64
2023/03/26 09:55:01;;;;;;;4.73;2.20;;;10.90;91.40;;;;;;5014135;28;20470;-62
2023/03/26 09:57:52;;;;;;;5.83;2.43;;;10.80;92.00;;;;;;5054095;28;20451;-63
2023/03/26 10:00:28;;;;;;;2.20;2.00;;;10.80;92.90;;;;;;5095882;28;20449;-64
2023/03/26 10:03:17;;;;;;;8.07;2.70;;;11.00;92.80;;;;;;5095497;28;20604;-60
2023/03/26 10:05:53;;;;;;;3.47;2.20;;;11.30;92.10;;;;;;5095872;28;20466;-64
2023/03/26 10:08:53;;;;;;;5.83;2.00;;;11.50;91.20;;;;;;5095532;28;20426;-64
2023/03/26 10:11:32;;;;;;;5.97;2.67;;;11.40;91.20;;;;;;5078689;28;20489;-64
2023/03/26 10:14:09;;;;;;;4.47;2.63;;;11.50;91.70;;;;;;5096217;28;20510;-62
2023/03/26 10:16:48;;;;;;;6.13;3.00;;;11.70;91.80;;;;;;5096039;28;20491;-62
2023/03/26 10:19:37;;;;;;;4.87;2.50;;;11.80;91.40;;;;;;5095664;28;20433;-63
2023/03/26 10:22:17;;;;;;;4.20;2.10;;;11.90;91.60;;;;;;5096046;28;20522;-62
2023/03/26 10:25:13;;;;;;;5.07;3.00;;;11.90;91.60;;;;;;5095563;28;20470;-62
2023/03/26 10:27:49;;;;;;;10.70;2.67;;;11.90;91.50;;;;;;5095570;28;20971;-62
2023/03/26 10:30:36;;;;;;;6.13;2.57;;;11.80;91.90;;;;;;5095436;28;20430;-63
2023/03/26 10:33:14;;;;;;;4.10;2.67;;;11.80;91.60;;;;;;5095171;28;20462;-62
2023/03/26 10:35:50;;;;;;;4.90;3.17;;;11.70;91.80;;;;;;5095235;28;20883;-63
2023/03/26 10:38:28;;;;;;;4.33;2.77;;;11.70;91.70;;;;;;5095656;28;20431;-62
2023/03/26 10:41:03;;;;;;;5.10;3.00;;;11.60;90.90;;;;;;5095706;28;20433;-62
2023/03/26 10:43:53;;;;;;;5.50;2.60;;;11.40;91.30;;;;;;5095101;28;20432;-62
2023/03/26 10:47:00;;;;;;;4.17;2.83;;;11.40;91.80;;;;;;5094510;28;20442;-62
2023/03/26 10:49:47;;;;;;;6.03;2.63;;;11.50;91.60;;;;;;5012867;28;20442;-64
2023/03/26 10:52:19;;;;;;;4.80;2.37;;;11.70;91.50;;;;;;5092680;28;20485;-62
2023/03/26 10:54:54;;;;;;;4.80;2.20;;;11.90;90.30;;;;;;5094600;28;20482;-62
2023/03/26 10:57:38;;;;;;;4.07;2.03;;;12.10;89.50;;;;;;5094931;28;20954;-63
2023/03/26 11:00:15;;;;;;;5.10;2.30;;;12.30;87.80;;;;;;5096414;22;20495;-60
2023/03/26 11:02:54;;;;;;;7.60;2.60;;;12.40;85.90;;;;;;5075006;28;20423;-59
2023/03/26 11:05:40;;;;;;;4.70;2.80;;;12.40;84.80;;;;;;5074681;28;20428;-60
2023/03/26 11:08:13;;;;;;;3.10;1.90;;;12.30;84.00;;;;;;5075319;28;20960;-60
2023/03/26 11:10:48;;;;;;;2.90;1.90;;;12.20;83.90;;;;;;5074291;28;20459;-60
2023/03/26 11:13:22;;;;;;;5.13;2.17;;;12.10;83.50;;;;;;5074626;28;21002;-60
2023/03/26 11:15:53;;;;;;;4.73;2.33;;;12.10;84.00;;;;;;5074603;28;20439;-60
2023/03/26 11:18:32;;;;;;;6.00;2.10;;;12.20;83.00;;;;;;5074641;28;20470;-60
2023/03/26 11:21:07;;;;;;;3.63;1.77;;;12.30;82.70;;;;;;5074301;28;20432;-60
2023/03/26 11:23:36;;;;;;;4.63;1.63;;;12.50;81.60;;;;;;5075316;28;20436;-60
2023/03/26 11:26:11;;;;;;;3.93;1.67;;;12.70;79.30;;;;;;5076280;28;20447;-60
2023/03/26 11:29:00;;;;;;;8.67;2.40;;;12.70;78.40;;;;;;5075558;28;21039;-60
2023/03/26 11:31:33;;;;;;;5.83;2.03;;;12.70;78.20;;;;;;5062962;28;20949;-60
2023/03/26 11:34:06;;;;;;;3.23;2.20;;;12.70;77.70;;;;;;5077571;28;20434;-60
2023/03/26 11:36:38;;;;;;;4.17;1.80;;;12.70;76.70;;;;;;5076827;28;20432;-62
2023/03/26 11:39:13;;;;;;;3.63;2.40;;;12.80;77.10;;;;;;5078023;28;20527;-60
2023/03/26 11:41:40;;;;;;;5.10;2.37;;;12.90;76.50;;;;;;5076323;28;20431;-58
2023/03/26 11:44:19;;;;;;;2.47;2.17;;;13.00;75.50;;;;;;5077478;28;20439;-60
2023/03/26 11:46:48;;;;;;;6.37;2.40;;;13.10;75.10;;;;;;5077342;28;20434;-60
2023/03/26 11:49:19;;;;;;;4.13;2.60;;;13.20;74.50;;;;;;5075022;28;20471;-59
2023/03/26 11:51:47;;;;;;;4.37;2.10;;;13.30;73.30;;;;;;5075903;28;20474;-60
2023/03/26 11:54:16;;;;;;;3.60;2.30;;;13.40;72.60;;;;;;5075088;28;20486;-61
2023/03/26 11:56:48;;;;;;;4.70;2.50;;;13.50;71.70;;;;;;5076271;28;20554;-60
2023/03/26 11:59:18;;;;;;;5.50;2.23;;;13.40;70.80;;;;;;5073806;28;20521;-60
2023/03/26 12:01:50;;;;;;;3.40;2.00;;;13.30;70.60;;;;;;5074576;28;20443;-60
2023/03/26 12:04:20;;;;;;;4.47;2.20;;;13.10;70.50;;;;;;5074868;28;20432;-61
2023/03/26 12:06:56;;;;;;;2.10;1.60;;;13.00;70.70;;;;;;5077400;28;20506;-61
2023/03/26 12:09:24;;;;;;;3.10;2.03;;;13.00;70.80;;;;;;5078382;28;20506;-64
2023/03/26 12:11:56;;;;;;;4.20;2.00;;;13.00;70.50;;;;;;5079213;28;20810;-63
2023/03/26 12:14:26;;;;;;;3.43;2.40;;;13.10;70.30;;;;;;5079059;28;20430;-61
2023/03/26 12:17:02;;;;;;;2.07;1.87;;;13.10;69.60;;;;;;5077507;28;20447;-61
2023/03/26 12:19:38;;;;;;;2.80;2.23;;;13.10;68.80;;;;;;5076574;28;20461;-60
2023/03/26 12:22:05;;;;;;;4.60;2.13;;;13.00;68.80;;;;;;5077200;28;20423;-60
2023/03/26 12:24:34;;;;;;;3.00;1.73;;;13.00;68.80;;;;;;5076698;28;20454;-61
2023/03/26 12:27:20;;;;;;;3.63;2.03;;;12.90;68.40;;;;;;5076605;28;20796;-60
2023/03/26 12:29:51;;;;;;;5.07;2.23;;;12.90;68.40;;;;;;5078752;28;20463;-59
2023/03/26 12:32:18;;;;;;;4.93;2.70;;;12.80;68.50;;;;;;5080794;28;20467;-59
2023/03/26 12:34:46;;;;;;;4.77;2.50;;;12.90;68.50;;;;;;5081090;28;20443;-59
2023/03/26 12:37:35;;;;;;;2.83;1.80;;;13.00;68.30;;;;;;5081977;28;20439;-61
2023/03/26 12:40:26;;;;;;;6.23;1.87;;;13.10;67.80;;;;;;5081216;28;20461;-60
2023/03/26 12:42:55;;;;;;;3.90;1.93;;;13.20;67.80;;;;;;5082089;28;20416;-60
2023/03/26 12:45:23;;;;;;;2.53;1.80;;;13.30;67.40;;;;;;5080750;28;20522;-60
2023/03/26 12:47:51;;;;;;;9.00;2.00;;;13.40;66.90;;;;;;5081058;28;20839;-60
2023/03/26 12:50:27;;;;;;;3.60;1.70;;;13.30;66.30;;;;;;5082754;28;20465;-61
2023/03/26 12:53:16;;;;;;;6.20;2.20;;;13.10;66.80;;;;;;5079733;28;20466;-59
2023/03/26 12:55:54;;;;;;;7.00;2.10;;;13.00;67.20;;;;;;5078108;28;20518;-59
2023/03/26 12:58:43;;;;;;;3.60;1.73;;;12.90;67.90;;;;;;5078091;28;20434;-59
2023/03/26 13:01:19;;;;;;;3.83;2.10;;;12.90;68.80;;;;;;5077362;28;20909;-60
2023/03/26 13:04:08;;;;;;;2.63;1.70;;;12.80;69.10;;;;;;5081064;28;20515;-60
2023/03/26 13:06:43;;;;;;;8.10;2.70;;;12.80;69.30;;;;;;5077337;28;20428;-60
2023/03/26 13:09:31;;;;;;;4.53;2.47;;;12.70;69.70;;;;;;5077270;28;20477;-60
2023/03/26 13:12:09;;;;;;;3.37;1.90;;;12.70;70.00;;;;;;5077337;28;20431;-61
2023/03/26 13:15:09;;;;;;;3.77;2.13;;;12.70;70.50;;;;;;5076727;28;20434;-59
2023/03/26 13:17:43;;;;;;;4.60;2.27;;;12.70;70.90;;;;;;5040692;28;20455;-60
2023/03/26 13:20:20;;;;;;;6.30;2.77;;;12.80;71.10;;;;;;5076898;28;20967;-60
2023/03/26 13:22:57;;;;;;;7.07;2.47;;;12.80;71.00;;;;;;5076825;28;20430;-59
2023/03/26 13:25:35;;;;;;;6.33;3.00;;;12.70;70.70;;;;;;5076695;28;20431;-59
2023/03/26 13:28:16;;;;;;;3.00;1.97;;;12.70;71.00;;;;;;5077305;28;20423;-60
2023/03/26 13:30:50;;;;;;;8.67;2.53;;;12.70;71.00;;;;;;5077240;28;20893;-59